Time;durP1;ratioP1;P1;durP2;ratioP2;P2;SDS_P1;SDS_P2;PMS_P1;PMS_P2;Temp;Humidity;BMP_temperature;BMP_pressure;BME280_temperature;BME280_humidity;BME280_pressure;Samples;Min_cycle;Max_cycle;Signal;HPM_P1;HPM_P2
2021/08/12 00:00:34;;;;;;;1999.90;999.90;;;18.70;99.90;;;;;;5128046;28;20584;-85
2021/08/12 00:03:00;;;;;;;1999.90;999.90;;;18.70;99.90;;;;;;5128049;28;20499;-85
2021/08/12 00:05:29;;;;;;;1999.90;999.90;;;18.60;99.90;;;;;;5128737;28;20509;-86
2021/08/12 00:07:56;;;;;;;1999.90;999.90;;;18.50;99.90;;;;;;5128396;28;20505;-85
2021/08/12 00:10:22;;;;;;;1999.90;999.90;;;18.60;99.90;;;;;;5128208;28;20449;-85
2021/08/12 00:12:49;;;;;;;1999.90;999.90;;;18.50;99.90;;;;;;5128756;28;20463;-86
2021/08/12 00:15:16;;;;;;;1999.90;999.90;;;18.40;99.90;;;;;;5128346;28;20491;-85
2021/08/12 00:17:43;;;;;;;1999.90;999.90;;;18.50;99.90;;;;;;5128407;28;20527;-85
2021/08/12 00:20:12;;;;;;;1999.90;999.90;;;18.40;99.90;;;;;;5126186;28;20502;-85
2021/08/12 00:22:40;;;;;;;1999.90;999.90;;;18.40;99.90;;;;;;5128955;28;20523;-85
2021/08/12 00:25:08;;;;;;;1999.90;999.90;;;18.30;99.90;;;;;;5111976;28;20463;-85
2021/08/12 00:27:35;;;;;;;1999.90;999.90;;;18.30;99.90;;;;;;5109681;28;20521;-85
2021/08/12 00:30:02;;;;;;;1999.90;999.90;;;18.30;99.90;;;;;;5105794;28;20466;-85
2021/08/12 00:32:29;;;;;;;1999.90;999.90;;;18.30;99.90;;;;;;5106118;28;21010;-85
2021/08/12 00:34:56;;;;;;;1999.90;999.90;;;18.20;99.90;;;;;;5126597;28;20450;-86
2021/08/12 00:37:23;;;;;;;1999.90;999.90;;;18.20;99.90;;;;;;5116650;28;20484;-86
2021/08/12 00:39:51;;;;;;;1999.90;999.90;;;18.20;99.90;;;;;;5117318;28;20555;-86
2021/08/12 00:42:18;;;;;;;1999.90;999.90;;;18.10;99.90;;;;;;5105864;28;20494;-86
2021/08/12 00:44:45;;;;;;;1999.90;999.90;;;18.10;99.90;;;;;;5097472;28;20973;-86
2021/08/12 00:47:11;;;;;;;1999.90;999.90;;;18.10;99.90;;;;;;5096921;28;20451;-86
2021/08/12 00:49:38;;;;;;;1999.90;999.90;;;18.10;99.90;;;;;;5096639;28;20527;-86
2021/08/12 00:52:06;;;;;;;1999.90;999.90;;;18.00;99.90;;;;;;5096760;28;20483;-86
2021/08/12 00:54:35;;;;;;;1999.90;999.90;;;18.00;99.90;;;;;;5102324;28;20452;-86
2021/08/12 00:57:05;;;;;;;1999.90;999.90;;;18.00;99.90;;;;;;5098399;28;20811;-87
2021/08/12 00:59:36;;;;;;;1999.90;999.90;;;18.00;99.90;;;;;;5095870;28;20482;-86
2021/08/12 01:02:05;;;;;;;1999.90;999.90;;;17.90;99.90;;;;;;5097037;28;20472;-86
2021/08/12 01:04:32;;;;;;;1999.90;999.90;;;17.90;99.90;;;;;;5099265;28;20463;-86
2021/08/12 01:07:06;;;;;;;1999.90;999.90;;;17.90;99.90;;;;;;5117818;28;20457;-86
2021/08/12 01:09:44;;;;;;;1999.90;999.90;;;17.90;99.90;;;;;;5110928;28;20527;-85
2021/08/12 01:12:18;;;;;;;1999.90;999.90;;;17.90;99.90;;;;;;5122630;28;20841;-85
2021/08/12 01:14:53;;;;;;;1999.90;999.90;;;17.90;99.90;;;;;;5114131;28;20876;-85
2021/08/12 01:17:22;;;;;;;1999.90;999.90;;;17.80;99.90;;;;;;5126925;28;20446;-86
2021/08/12 01:20:09;;;;;;;1999.90;999.90;;;17.80;99.90;;;;;;5126862;28;20553;-86
2021/08/12 01:22:40;;;;;;;1999.90;999.90;;;17.70;99.90;;;;;;5126332;28;20845;-86
2021/08/12 01:25:14;;;;;;;1999.90;999.90;;;17.70;99.90;;;;;;5119831;28;20449;-86
2021/08/12 01:27:46;;;;;;;1999.90;999.90;;;17.70;99.90;;;;;;5106159;28;20839;-85
2021/08/12 01:30:16;;;;;;;1999.90;999.90;;;17.70;99.90;;;;;;5106428;28;20524;-86
2021/08/12 01:32:52;;;;;;;1999.90;999.90;;;17.60;99.90;;;;;;5109967;28;20541;-85
2021/08/12 01:35:23;;;;;;;1999.90;999.90;;;17.60;99.90;;;;;;5115449;28;20506;-85
2021/08/12 01:37:54;;;;;;;1999.90;999.90;;;17.60;99.90;;;;;;5130319;28;20453;-85
2021/08/12 01:40:24;;;;;;;1999.90;999.90;;;17.50;99.90;;;;;;5130403;28;20551;-85
2021/08/12 01:42:52;;;;;;;1999.90;999.90;;;17.50;99.90;;;;;;5114196;28;20467;-85
2021/08/12 01:45:20;;;;;;;1999.90;999.90;;;17.50;99.90;;;;;;5111060;28;20476;-86
2021/08/12 01:47:49;;;;;;;1999.90;999.90;;;17.50;99.90;;;;;;5110104;28;20434;-85
2021/08/12 01:50:17;;;;;;;1999.90;999.90;;;17.50;99.90;;;;;;5110389;28;20454;-85
2021/08/12 01:52:48;;;;;;;1999.90;999.90;;;17.40;99.90;;;;;;5109893;28;20470;-85
2021/08/12 01:55:16;;;;;;;1999.90;999.90;;;17.40;99.90;;;;;;5110221;28;20451;-86
2021/08/12 01:57:45;;;;;;;1999.90;999.90;;;17.40;99.90;;;;;;5110527;28;20442;-85
2021/08/12 02:00:13;;;;;;;1999.90;999.90;;;17.40;99.90;;;;;;5109498;28;20483;-85
2021/08/12 02:02:42;;;;;;;1999.90;999.90;;;17.40;99.90;;;;;;5109593;28;20563;-85
2021/08/12 02:05:12;;;;;;;1999.90;999.90;;;17.40;99.90;;;;;;5111503;28;20457;-86
2021/08/12 02:07:41;;;;;;;1999.90;999.90;;;17.40;99.90;;;;;;5102929;28;20486;-86
2021/08/12 02:10:12;;;;;;;1999.90;999.90;;;17.30;99.90;;;;;;5104817;28;20456;-86
2021/08/12 02:12:39;;;;;;;1999.90;999.90;;;17.30;99.90;;;;;;5105408;28;20476;-86
2021/08/12 02:15:07;;;;;;;1999.90;999.90;;;17.30;99.90;;;;;;5108370;28;20455;-86
2021/08/12 02:17:34;;;;;;;1999.90;999.90;;;17.30;99.90;;;;;;5120981;28;20468;-86
2021/08/12 02:20:02;;;;;;;1999.90;999.90;;;17.30;99.90;;;;;;5127984;28;20493;-86
2021/08/12 02:22:34;;;;;;;1999.90;999.90;;;17.30;99.90;;;;;;5130257;28;20525;-86
2021/08/12 02:25:07;;;;;;;1999.90;999.90;;;17.30;99.90;;;;;;5128464;28;20484;-86
2021/08/12 02:27:41;;;;;;;1999.90;999.90;;;17.30;99.90;;;;;;5122608;28;20450;-86
2021/08/12 02:30:10;;;;;;;1999.90;999.90;;;17.30;99.90;;;;;;5124133;28;20455;-87
2021/08/12 02:32:37;;;;;;;1999.90;999.90;;;17.30;99.90;;;;;;5120883;27;20478;-86
2021/08/12 02:35:06;;;;;;;1999.90;999.90;;;17.30;99.90;;;;;;5124876;28;20458;-86
2021/08/12 02:37:36;;;;;;;1999.90;999.90;;;17.20;99.90;;;;;;5127520;28;20461;-86
2021/08/12 02:40:05;;;;;;;1999.90;999.90;;;17.20;99.90;;;;;;5121017;28;20497;-86
2021/08/12 02:42:37;;;;;;;1999.90;999.90;;;17.20;99.90;;;;;;5112724;28;20475;-87
2021/08/12 02:45:05;;;;;;;1999.90;999.90;;;17.20;99.90;;;;;;5121649;28;20446;-86
2021/08/12 02:47:32;;;;;;;1999.90;999.90;;;17.20;99.90;;;;;;5127053;28;20460;-86
2021/08/12 02:50:02;;;;;;;1999.90;999.90;;;17.20;99.90;;;;;;5123678;28;20452;-86
2021/08/12 02:52:29;;;;;;;1999.90;999.90;;;17.20;99.90;;;;;;5124579;28;20926;-86
2021/08/12 02:54:57;;;;;;;1999.90;999.90;;;17.10;99.90;;;;;;5121894;28;20451;-85
2021/08/12 02:57:24;;;;;;;1999.90;999.90;;;17.10;99.90;;;;;;5107161;28;20957;-86
2021/08/12 02:59:53;;;;;;;1999.90;999.90;;;17.10;99.90;;;;;;5106091;28;20483;-85
2021/08/12 03:02:22;;;;;;;1999.90;999.90;;;17.10;99.90;;;;;;5104336;28;20473;-86
2021/08/12 03:04:49;;;;;;;1999.90;999.90;;;17.10;99.90;;;;;;5127630;22;20539;-85
2021/08/12 03:07:18;;;;;;;1999.90;999.90;;;17.10;99.90;;;;;;5114121;28;20440;-85
2021/08/12 03:09:48;;;;;;;1999.90;999.90;;;17.00;99.90;;;;;;5114114;28;20437;-85
2021/08/12 03:12:16;;;;;;;1999.90;999.90;;;17.10;99.90;;;;;;5111170;28;20452;-84
2021/08/12 03:14:43;;;;;;;1999.90;999.90;;;17.00;99.90;;;;;;5110137;28;20478;-86
2021/08/12 03:17:12;;;;;;;1999.90;999.90;;;17.00;99.90;;;;;;5109597;28;20441;-85
2021/08/12 03:19:40;;;;;;;1999.90;999.90;;;17.00;99.90;;;;;;5109101;28;20494;-85
2021/08/12 03:22:07;;;;;;;1999.90;999.90;;;17.00;99.90;;;;;;5109779;28;20447;-84
2021/08/12 03:24:36;;;;;;;1999.90;999.90;;;17.00;99.90;;;;;;5109528;28;20467;-83
2021/08/12 03:27:03;;;;;;;1999.90;999.90;;;17.00;99.90;;;;;;5108758;28;20519;-85
2021/08/12 03:29:31;;;;;;;1999.90;999.90;;;17.00;99.90;;;;;;5108839;28;20456;-86
2021/08/12 03:31:57;;;;;;;1999.90;999.90;;;17.00;99.90;;;;;;5104118;28;20498;-81
2021/08/12 03:34:26;;;;;;;1999.90;999.90;;;17.00;99.90;;;;;;5096484;28;20466;-83
2021/08/12 03:36:53;;;;;;;1999.90;999.90;;;17.00;99.90;;;;;;5096603;28;20460;-82
2021/08/12 03:39:21;;;;;;;1999.90;999.90;;;17.00;99.90;;;;;;5096560;28;20455;-81
2021/08/12 03:41:48;;;;;;;1999.90;999.90;;;17.00;99.90;;;;;;5096646;28;20484;-81
2021/08/12 03:44:14;;;;;;;1999.90;999.90;;;17.00;99.90;;;;;;5096340;28;20476;-81
2021/08/12 03:46:41;;;;;;;1999.90;999.90;;;17.00;99.90;;;;;;5096272;28;20517;-81
2021/08/12 03:49:08;;;;;;;1999.90;999.90;;;17.00;99.90;;;;;;5095701;28;20468;-81
2021/08/12 03:51:36;;;;;;;1999.90;999.90;;;16.90;99.90;;;;;;5097190;28;20454;-82
2021/08/12 03:54:03;;;;;;;1999.90;999.90;;;16.90;99.90;;;;;;5096183;28;20473;-81
2021/08/12 03:56:30;;;;;;;1999.90;999.90;;;16.90;99.90;;;;;;5098305;28;20455;-84
2021/08/12 03:58:57;;;;;;;1999.90;999.90;;;16.90;99.90;;;;;;5109210;28;20494;-84
2021/08/12 04:01:24;;;;;;;1999.90;999.90;;;16.90;99.90;;;;;;5106892;28;20477;-84
2021/08/12 04:03:51;;;;;;;1999.90;999.90;;;16.90;99.90;;;;;;5107188;28;20541;-84
2021/08/12 04:06:18;;;;;;;1999.90;999.90;;;16.90;99.90;;;;;;5103821;28;20478;-83
2021/08/12 04:08:46;;;;;;;1999.90;999.90;;;16.90;99.90;;;;;;5100173;28;20478;-84
2021/08/12 04:11:13;;;;;;;1999.90;999.90;;;16.90;99.90;;;;;;5097980;28;20460;-83
2021/08/12 04:13:40;;;;;;;1999.90;999.90;;;16.90;99.90;;;;;;5097204;28;20477;-84
2021/08/12 04:16:07;;;;;;;1999.90;999.90;;;16.80;99.90;;;;;;5096714;28;20450;-84
2021/08/12 04:18:34;;;;;;;1999.90;999.90;;;16.80;99.90;;;;;;5096778;28;20541;-84
2021/08/12 04:21:01;;;;;;;1999.90;999.90;;;16.80;99.90;;;;;;5096688;28;20573;-83
2021/08/12 04:23:28;;;;;;;1999.90;999.90;;;16.80;99.90;;;;;;5096134;28;20483;-83
2021/08/12 04:25:56;;;;;;;1999.90;999.90;;;16.80;99.90;;;;;;5095624;28;20450;-84
2021/08/12 04:28:23;;;;;;;1999.90;999.90;;;16.80;99.90;;;;;;5096190;28;20451;-83
2021/08/12 04:30:49;;;;;;;1999.90;999.90;;;16.80;99.90;;;;;;5095994;28;20445;-83
2021/08/12 04:33:17;;;;;;;1999.90;999.90;;;16.80;99.90;;;;;;5096168;28;20458;-83
2021/08/12 04:35:44;;;;;;;1999.90;999.90;;;16.80;99.90;;;;;;5095515;28;20454;-83
2021/08/12 04:38:11;;;;;;;1999.90;999.90;;;16.80;99.90;;;;;;5096447;28;20450;-82
2021/08/12 04:40:39;;;;;;;1999.90;999.90;;;16.80;99.90;;;;;;5095887;28;20514;-84
2021/08/12 04:43:07;;;;;;;1999.90;999.90;;;16.80;99.90;;;;;;5095915;28;20456;-83
2021/08/12 04:45:34;;;;;;;1999.90;999.90;;;16.90;99.90;;;;;;5096018;28;20540;-83
2021/08/12 04:48:02;;;;;;;1999.90;999.90;;;16.80;99.90;;;;;;5095912;28;20515;-84
2021/08/12 04:50:29;;;;;;;1999.90;999.90;;;16.80;99.90;;;;;;5096210;28;20446;-84
2021/08/12 04:52:56;;;;;;;1999.90;999.90;;;16.80;99.90;;;;;;5096276;28;20774;-83
2021/08/12 04:55:23;;;;;;;1999.90;999.90;;;16.80;99.90;;;;;;5095916;28;20458;-83
2021/08/12 04:57:50;;;;;;;1999.90;999.90;;;16.90;99.90;;;;;;5096300;28;20985;-83
2021/08/12 05:00:19;;;;;;;1999.90;999.90;;;16.90;99.90;;;;;;5096180;28;20460;-84
2021/08/12 05:02:46;;;;;;;1999.90;999.90;;;16.90;99.90;;;;;;5097457;28;20448;-84
2021/08/12 05:05:13;;;;;;;1999.90;999.90;;;17.00;99.90;;;;;;5096629;28;20681;-83
2021/08/12 05:07:40;;;;;;;1999.90;999.90;;;17.00;99.90;;;;;;5096768;28;20449;-85
2021/08/12 05:10:08;;;;;;;1999.90;999.90;;;17.00;99.90;;;;;;5095756;28;20528;-83
2021/08/12 05:12:35;;;;;;;1999.90;999.90;;;17.00;99.90;;;;;;5095796;28;20455;-83
2021/08/12 05:15:02;;;;;;;1999.90;999.90;;;17.00;99.90;;;;;;5095927;28;20478;-84
2021/08/12 05:17:30;;;;;;;1999.90;999.90;;;17.10;99.90;;;;;;5095764;28;20841;-83
2021/08/12 05:19:57;;;;;;;1999.90;999.90;;;17.10;99.90;;;;;;5098882;28;20457;-83
2021/08/12 05:22:24;;;;;;;1999.90;999.90;;;17.20;99.90;;;;;;5101860;28;20914;-85
2021/08/12 05:24:51;;;;;;;1999.90;999.90;;;17.20;99.90;;;;;;5107914;28;20601;-84
2021/08/12 05:27:20;;;;;;;1999.90;999.90;;;17.30;99.90;;;;;;5105616;28;20465;-83
2021/08/12 05:29:46;;;;;;;1999.90;999.90;;;17.40;99.90;;;;;;5106175;28;20541;-84
2021/08/12 05:32:14;;;;;;;1999.90;999.90;;;17.40;99.90;;;;;;5106435;28;20504;-84
2021/08/12 05:34:42;;;;;;;1999.90;999.90;;;17.40;99.90;;;;;;5105732;28;20477;-84
2021/08/12 05:37:09;;;;;;;1999.90;999.90;;;17.40;99.90;;;;;;5105709;28;20460;-83
2021/08/12 05:39:36;;;;;;;1999.90;999.90;;;17.50;99.90;;;;;;5105211;28;20897;-84
2021/08/12 05:42:03;;;;;;;1999.90;999.90;;;17.50;99.90;;;;;;5104798;28;20498;-84
2021/08/12 05:44:30;;;;;;;1999.90;999.90;;;17.60;99.90;;;;;;5105349;28;20481;-83
2021/08/12 05:46:57;;;;;;;1999.90;999.90;;;17.60;99.90;;;;;;5106102;28;20552;-84
2021/08/12 05:49:24;;;;;;;1999.90;999.90;;;17.70;99.90;;;;;;5106166;28;20482;-85
2021/08/12 05:51:53;;;;;;;1999.90;999.90;;;17.70;99.90;;;;;;5105887;28;20447;-85
2021/08/12 05:54:21;;;;;;;1999.90;999.90;;;17.80;99.90;;;;;;5105363;28;20463;-86
2021/08/12 05:56:47;;;;;;;1999.90;999.90;;;17.90;99.90;;;;;;5103662;28;20481;-85
2021/08/12 05:59:14;;;;;;;1999.90;999.90;;;17.90;99.90;;;;;;5102111;28;20471;-84
2021/08/12 06:01:41;;;;;;;1999.90;999.90;;;18.00;99.90;;;;;;5102910;28;20547;-85
2021/08/12 06:04:08;;;;;;;1999.90;999.90;;;18.00;99.90;;;;;;5107496;28;20493;-86
2021/08/12 06:06:38;;;;;;;1999.90;999.90;;;18.10;99.90;;;;;;5106116;28;21007;-85
2021/08/12 06:09:07;;;;;;;1999.90;999.90;;;18.10;99.90;;;;;;5101646;28;20451;-85
2021/08/12 06:11:34;;;;;;;1999.90;999.90;;;18.20;99.90;;;;;;5098206;28;21026;-87
2021/08/12 06:14:01;;;;;;;1999.90;999.90;;;18.30;99.90;;;;;;5097743;28;20523;-86
2021/08/12 06:16:28;;;;;;;1999.90;999.90;;;18.30;99.90;;;;;;5099672;28;20847;-86
2021/08/12 06:18:55;;;;;;;1999.90;999.90;;;18.40;99.90;;;;;;5099683;28;20542;-85
2021/08/12 06:21:23;;;;;;;1999.90;999.90;;;18.40;99.90;;;;;;5100084;28;20860;-85
2021/08/12 06:23:50;;;;;;;1999.90;999.90;;;18.50;99.90;;;;;;5100463;28;20500;-86
2021/08/12 06:26:19;;;;;;;1999.90;999.90;;;18.50;99.90;;;;;;5100233;28;20532;-86
2021/08/12 06:28:46;;;;;;;1999.90;999.90;;;18.60;99.90;;;;;;5100252;28;20546;-85
2021/08/12 06:31:13;;;;;;;1999.90;999.90;;;18.70;99.90;;;;;;5100968;28;20837;-86
2021/08/12 06:33:40;;;;;;;1999.90;999.90;;;18.80;99.90;;;;;;5103331;28;21001;-85
2021/08/12 06:36:07;;;;;;;1999.90;999.90;;;18.80;99.90;;;;;;5101907;28;20502;-85
2021/08/12 06:38:35;;;;;;;1999.90;999.90;;;18.90;99.90;;;;;;5100848;28;20452;-84
2021/08/12 06:41:02;;;;;;;1999.90;999.90;;;18.90;99.90;;;;;;5100160;28;20571;-84
2021/08/12 06:43:30;;;;;;;1999.90;999.90;;;18.90;99.90;;;;;;5099360;28;20474;-84
2021/08/12 06:45:57;;;;;;;1999.90;999.90;;;19.00;99.90;;;;;;5099898;28;20512;-83
2021/08/12 06:48:24;;;;;;;1999.90;999.90;;;19.10;99.90;;;;;;5099466;28;20494;-84
2021/08/12 06:50:51;;;;;;;1999.90;999.90;;;19.10;99.90;;;;;;5101921;28;20967;-85
2021/08/12 06:53:18;;;;;;;1999.90;999.90;;;19.20;99.90;;;;;;5105490;28;20469;-85
2021/08/12 06:55:44;;;;;;;1999.90;999.90;;;19.30;99.90;;;;;;5097565;28;20452;-83
2021/08/12 06:58:11;;;;;;;1999.90;999.90;;;19.40;99.90;;;;;;5096470;28;20464;-83
2021/08/12 07:00:39;;;;;;;1999.90;999.90;;;19.50;99.90;;;;;;5096309;28;20454;-85
2021/08/12 07:03:06;;;;;;;1999.90;999.90;;;19.60;99.90;;;;;;5096234;28;20490;-85
2021/08/12 07:05:33;;;;;;;1999.90;999.90;;;19.70;99.90;;;;;;5096992;28;20437;-84
2021/08/12 07:08:01;;;;;;;1999.90;999.90;;;19.80;99.90;;;;;;5077187;28;20457;-84
2021/08/12 07:10:28;;;;;;;1999.90;999.90;;;19.80;99.90;;;;;;5085638;28;20456;-84
2021/08/12 07:12:54;;;;;;;1999.90;999.90;;;20.00;99.90;;;;;;5096237;28;20446;-86
2021/08/12 07:15:21;;;;;;;1999.90;999.90;;;20.10;99.90;;;;;;5098436;28;20446;-84
2021/08/12 07:17:49;;;;;;;1999.90;999.90;;;20.10;99.90;;;;;;5097992;28;20449;-83
2021/08/12 07:20:16;;;;;;;1999.90;999.90;;;20.20;99.90;;;;;;5101441;28;20450;-84
2021/08/12 07:22:43;;;;;;;1999.90;999.90;;;20.20;99.90;;;;;;5097573;28;20498;-83
2021/08/12 07:25:11;;;;;;;1999.90;999.90;;;20.30;99.90;;;;;;5096077;28;20497;-83
2021/08/12 07:27:38;;;;;;;1999.90;999.90;;;20.40;99.90;;;;;;5096487;28;20450;-83
2021/08/12 07:30:06;;;;;;;1999.90;999.90;;;20.40;99.90;;;;;;5096527;28;20445;-83
2021/08/12 07:32:33;;;;;;;1999.90;999.90;;;20.40;99.90;;;;;;5097042;28;20503;-83
2021/08/12 07:35:02;;;;;;;1999.90;999.90;;;20.40;99.90;;;;;;5096734;28;20466;-85
2021/08/12 07:37:28;;;;;;;1999.90;999.90;;;20.60;99.90;;;;;;5096596;28;20460;-84
2021/08/12 07:39:55;;;;;;;1999.90;999.90;;;20.70;99.90;;;;;;5095778;28;20451;-83
2021/08/12 07:42:22;;;;;;;1999.90;999.90;;;20.60;99.90;;;;;;5096475;28;20291;-83
2021/08/12 07:44:49;;;;;;;1999.90;999.90;;;20.70;99.90;;;;;;5096356;28;20491;-83
2021/08/12 07:47:16;;;;;;;1999.90;999.90;;;20.90;99.90;;;;;;5096597;28;20457;-83
2021/08/12 07:49:42;;;;;;;1999.90;999.90;;;21.00;99.90;;;;;;5097406;28;20505;-83
2021/08/12 07:52:11;;;;;;;1999.90;999.90;;;21.10;99.90;;;;;;5098098;28;20442;-84
2021/08/12 07:54:38;;;;;;;1999.90;999.90;;;21.30;99.90;;;;;;5099462;28;20529;-83
2021/08/12 07:57:06;;;;;;;1999.90;999.90;;;21.30;99.90;;;;;;5103468;28;20481;-85
2021/08/12 07:59:33;;;;;;;1999.90;999.90;;;21.50;99.90;;;;;;5105531;28;20466;-84
2021/08/12 08:02:00;;;;;;;1999.90;999.90;;;21.60;99.90;;;;;;5104258;28;20549;-84
2021/08/12 08:04:28;;;;;;;1999.90;999.90;;;21.60;99.90;;;;;;5102303;28;20474;-86
2021/08/12 08:06:54;;;;;;;1999.90;999.90;;;21.80;99.90;;;;;;5101298;28;20458;-85
2021/08/12 08:09:23;;;;;;;1999.90;999.90;;;21.90;99.90;;;;;;5100611;28;20446;-85
2021/08/12 08:11:49;;;;;;;1999.90;999.90;;;22.10;99.90;;;;;;5100001;28;21037;-84
2021/08/12 08:14:16;;;;;;;1999.90;999.90;;;22.30;99.90;;;;;;5100124;28;20462;-85
2021/08/12 08:16:43;;;;;;;1999.90;999.90;;;22.50;99.90;;;;;;5098548;28;20456;-84
2021/08/12 08:19:10;;;;;;;1999.90;999.90;;;22.40;99.90;;;;;;5098910;28;20957;-84
2021/08/12 08:21:39;;;;;;;1999.90;999.90;;;22.50;99.90;;;;;;5106195;28;20486;-84
2021/08/12 08:24:07;;;;;;;1999.90;999.90;;;22.60;99.90;;;;;;5103010;28;21053;-85
2021/08/12 08:26:35;;;;;;;1999.90;999.90;;;22.60;99.90;;;;;;5098824;28;20450;-84
2021/08/12 08:29:02;;;;;;;1999.90;999.90;;;22.70;99.90;;;;;;5097802;28;20539;-85
2021/08/12 08:31:29;;;;;;;1999.90;999.90;;;22.60;99.90;;;;;;5097934;28;20445;-84
2021/08/12 08:33:56;;;;;;;1999.90;999.90;;;22.60;99.90;;;;;;5097318;28;20549;-84
2021/08/12 08:36:25;;;;;;;1999.90;999.90;;;22.70;99.90;;;;;;5096823;28;21037;-84
2021/08/12 08:38:52;;;;;;;1999.90;999.90;;;22.70;99.90;;;;;;5096983;28;20904;-85
2021/08/12 08:41:19;;;;;;;1999.90;999.90;;;22.60;99.90;;;;;;5097676;28;21033;-85
2021/08/12 08:43:51;;;;;;;1999.90;999.90;;;22.80;99.90;;;;;;5097860;28;20470;-84
2021/08/12 08:46:19;;;;;;;1999.90;999.90;;;22.90;99.90;;;;;;5097568;28;20448;-85
2021/08/12 08:48:48;;;;;;;1999.90;999.90;;;23.10;99.90;;;;;;5098191;28;20853;-85
2021/08/12 08:51:15;;;;;;;1999.90;999.90;;;23.60;99.90;;;;;;5098916;28;20544;-85
2021/08/12 08:53:44;;;;;;;1999.90;999.90;;;23.90;99.90;;;;;;5097530;28;20474;-84
2021/08/12 08:56:11;;;;;;;1999.90;999.90;;;23.90;99.90;;;;;;5097904;28;20990;-85
2021/08/12 08:58:39;;;;;;;1999.90;999.90;;;23.80;99.90;;;;;;5098097;28;20529;-85
2021/08/12 09:01:08;;;;;;;1999.90;999.90;;;24.00;99.90;;;;;;5098309;28;20470;-85
2021/08/12 09:03:36;;;;;;;1999.90;999.90;;;24.20;99.90;;;;;;5124688;22;20486;-82
2021/08/12 09:06:03;;;;;;;1999.90;999.90;;;24.40;99.90;;;;;;5077437;28;20493;-84
2021/08/12 09:08:32;;;;;;;1999.90;999.90;;;24.50;99.90;;;;;;5061984;28;20455;-83
2021/08/12 09:10:59;;;;;;;1999.90;999.90;;;24.50;99.90;;;;;;5063860;28;20482;-82
2021/08/12 09:13:28;;;;;;;1999.90;999.90;;;24.60;99.90;;;;;;5065683;28;20448;-82
2021/08/12 09:15:55;;;;;;;1999.90;999.90;;;24.50;99.90;;;;;;5045621;28;20453;-81
2021/08/12 09:18:25;;;;;;;1999.90;999.90;;;24.60;99.90;;;;;;5039330;28;20463;-82
2021/08/12 09:28:39;;;;;;;1999.90;999.90;;;25.20;99.90;;;;;;5051478;22;20491;-85
2021/08/12 09:31:08;;;;;;;1999.90;999.90;;;25.20;99.90;;;;;;5053740;28;20466;-85
2021/08/12 09:33:52;;;;;;;1999.90;999.90;;;25.50;99.90;;;;;;5057658;28;20443;-84
2021/08/12 09:36:38;;;;;;;1999.90;999.90;;;25.60;99.90;;;;;;5049519;28;20489;-84
2021/08/12 09:39:14;;;;;;;1999.90;999.90;;;25.80;99.90;;;;;;5057062;28;20514;-83
2021/08/12 09:41:43;;;;;;;1999.90;999.90;;;26.00;99.90;;;;;;5050727;28;20447;-83
2021/08/12 09:44:31;;;;;;;1999.90;999.90;;;26.00;99.90;;;;;;5067412;28;20443;-82
2021/08/12 09:46:59;;;;;;;1999.90;999.90;;;26.30;99.90;;;;;;5050458;28;20476;-85
2021/08/12 09:49:40;;;;;;;1999.90;999.90;;;26.30;99.90;;;;;;5046271;28;20467;-82
2021/08/12 09:54:37;;;;;;;1999.90;999.90;;;26.40;99.90;;;;;;5062022;28;21263;-83
2021/08/12 09:57:15;;;;;;;1999.90;999.90;;;26.50;99.90;;;;;;5068978;28;20474;-82
2021/08/12 09:59:47;;;;;;;1999.90;999.90;;;26.60;99.90;;;;;;5080751;28;20902;-82
2021/08/12 10:02:14;;;;;;;1999.90;999.90;;;27.00;99.90;;;;;;5063198;28;20936;-83
2021/08/12 10:04:43;;;;;;;1999.90;999.90;;;27.20;99.90;;;;;;5041170;28;20452;-83
2021/08/12 10:07:25;;;;;;;1999.90;999.90;;;27.30;99.90;;;;;;5041116;28;20460;-82
2021/08/12 10:09:51;;;;;;;1999.90;999.90;;;27.40;99.90;;;;;;5042443;28;20448;-83
2021/08/12 10:12:33;;;;;;;1999.90;999.90;;;27.40;99.90;;;;;;5042171;28;20436;-82
2021/08/12 10:15:00;;;;;;;1999.90;999.90;;;27.40;99.90;;;;;;5051316;28;20515;-83
2021/08/12 10:17:28;;;;;;;1999.90;999.90;;;27.60;99.90;;;;;;5055006;28;20551;-84
2021/08/12 10:19:56;;;;;;;1999.90;999.90;;;27.90;99.90;;;;;;5062309;28;20454;-83
2021/08/12 10:22:23;;;;;;;1999.90;999.90;;;27.80;99.90;;;;;;5061276;28;20494;-84
2021/08/12 10:24:51;;;;;;;1999.90;999.90;;;27.60;99.90;;;;;;5057813;28;20456;-85
2021/08/12 10:27:18;;;;;;;1999.90;999.90;;;27.90;99.90;;;;;;5057217;28;20470;-84
2021/08/12 10:29:46;;;;;;;1999.90;999.90;;;28.10;99.90;;;;;;5061235;28;20520;-84
2021/08/12 10:32:16;;;;;;;1999.90;999.90;;;28.30;99.90;;;;;;5042625;28;20453;-83
2021/08/12 10:34:43;;;;;;;1999.90;999.90;;;28.20;99.90;;;;;;5043365;28;20452;-84
2021/08/12 10:37:12;;;;;;;1999.90;999.90;;;28.40;99.90;;;;;;5042473;28;20445;-83
2021/08/12 10:39:39;;;;;;;1999.90;999.90;;;28.60;99.90;;;;;;5041977;28;20455;-84
2021/08/12 10:42:07;;;;;;;1999.90;999.90;;;28.60;99.90;;;;;;5044218;28;20453;-84
2021/08/12 10:44:35;;;;;;;1999.90;999.90;;;28.80;99.90;;;;;;5043669;28;20461;-85
2021/08/12 10:47:02;;;;;;;1999.90;999.90;;;28.90;99.90;;;;;;5064316;28;20456;-84
2021/08/12 10:49:31;;;;;;;1999.90;999.90;;;28.80;99.90;;;;;;5064038;28;20547;-84
2021/08/12 10:52:04;;;;;;;1999.90;999.90;;;28.80;99.90;;;;;;5075334;28;20424;-84
2021/08/12 10:54:33;;;;;;;1999.90;999.90;;;28.90;99.90;;;;;;5060668;28;20474;-84
2021/08/12 10:57:16;;;;;;;1999.90;999.90;;;28.90;99.90;;;;;;5043355;28;20486;-84
2021/08/12 10:59:44;;;;;;;1999.90;999.90;;;29.10;99.90;;;;;;5043190;28;20455;-83
2021/08/12 11:02:42;;;;;;;1999.90;999.90;;;29.10;99.90;;;;;;5043176;28;20461;-85
2021/08/12 11:05:09;;;;;;;1999.90;999.90;;;29.10;99.90;;;;;;5043609;28;20448;-84
2021/08/12 11:07:51;;;;;;;1999.90;999.90;;;29.00;99.90;;;;;;5044961;28;20452;-84
2021/08/12 11:10:20;;;;;;;1999.90;999.90;;;29.30;99.90;;;;;;5063382;28;20462;-84
2021/08/12 11:13:04;;;;;;;1999.90;999.90;;;29.50;99.90;;;;;;5062910;28;21023;-84
2021/08/12 11:15:59;;;;;;;1999.90;999.90;;;29.60;99.90;;;;;;5070611;28;20451;-84
2021/08/12 11:18:49;;;;;;;1999.90;999.90;;;29.90;99.90;;;;;;5074027;28;20496;-84
2021/08/12 11:21:35;;;;;;;1999.90;999.90;;;30.00;99.90;;;;;;5069956;28;20554;-84
2021/08/12 11:24:03;;;;;;;1999.90;999.90;;;30.00;99.90;;;;;;5062891;28;20487;-84
2021/08/12 11:27:04;;;;;;;1999.90;999.90;;;30.00;99.90;;;;;;5057158;28;20535;-83
2021/08/12 11:29:32;;;;;;;1999.90;999.90;;;30.00;99.90;;;;;;5061742;28;20538;-83
2021/08/12 11:32:02;;;;;;;1999.90;999.90;;;29.80;99.90;;;;;;5063308;28;20448;-84
2021/08/12 11:34:32;;;;;;;1999.90;999.90;;;29.80;99.90;;;;;;5062364;28;20483;-83
2021/08/12 11:37:23;;;;;;;1999.90;999.90;;;29.50;99.90;;;;;;5059800;28;20447;-83
2021/08/12 11:39:55;;;;;;;1999.90;999.90;;;29.70;99.90;;;;;;5044824;28;20997;-83
2021/08/12 11:42:29;;;;;;;1999.90;999.90;;;29.60;99.90;;;;;;5048357;28;21056;-84
2021/08/12 11:44:59;;;;;;;1999.90;999.90;;;29.40;99.90;;;;;;5047454;28;20851;-81
2021/08/12 11:47:26;;;;;;;1999.90;999.90;;;29.50;99.90;;;;;;5045477;28;20456;-86
2021/08/12 11:49:55;;;;;;;1999.90;999.90;;;29.50;99.90;;;;;;5048729;28;20456;-85
2021/08/12 11:52:23;;;;;;;1999.90;999.90;;;29.90;99.90;;;;;;5043140;28;20521;-84
2021/08/12 11:55:01;;;;;;;1999.90;999.90;;;30.10;99.90;;;;;;5048232;28;20524;-82
2021/08/12 11:57:44;;;;;;;1999.90;999.90;;;29.70;99.90;;;;;;5056126;28;20460;-84
2021/08/12 12:00:13;;;;;;;1999.90;999.90;;;29.70;99.90;;;;;;5057091;28;20894;-83
2021/08/12 12:02:49;;;;;;;1999.90;999.90;;;29.60;99.90;;;;;;5058786;28;20920;-84
2021/08/12 12:05:19;;;;;;;1999.90;999.90;;;29.80;99.90;;;;;;5051216;28;20459;-83
2021/08/12 12:07:48;;;;;;;1999.90;999.90;;;29.80;99.90;;;;;;5045230;28;20470;-84
2021/08/12 12:10:24;;;;;;;1999.90;999.90;;;29.70;99.90;;;;;;5044135;28;20478;-84
2021/08/12 12:12:53;;;;;;;1999.90;999.90;;;29.40;99.90;;;;;;5047547;28;20522;-84
2021/08/12 12:15:30;;;;;;;1999.90;999.90;;;29.10;99.90;;;;;;5045591;28;20516;-84
2021/08/12 12:17:57;;;;;;;1999.90;999.90;;;28.70;99.90;;;;;;5047985;28;20502;-83